地図

経路データ

SID SEASON NUMBER BASIN SUBBASIN NAME ISO_TIME NATURE LAT LON WMO_WIND WMO_PRES WMO_AGENCY TRACK_TYPE DIST2LAND LANDFALL IFLAG USA_AGENCY USA_ATCF_ID USA_LAT USA_LON USA_RECORD USA_STATUS USA_WIND USA_PRES USA_SSHS USA_R34_NE USA_R34_SE USA_R34_SW USA_R34_NW USA_R50_NE USA_R50_SE USA_R50_SW USA_R50_NW USA_R64_NE USA_R64_SE USA_R64_SW USA_R64_NW USA_POCI USA_ROCI USA_RMW USA_EYE TOKYO_LAT TOKYO_LON TOKYO_GRADE TOKYO_WIND TOKYO_PRES TOKYO_R50_DIR TOKYO_R50_LONG TOKYO_R50_SHORT TOKYO_R30_DIR TOKYO_R30_LONG TOKYO_R30_SHORT TOKYO_LAND CMA_LAT CMA_LON CMA_CAT CMA_WIND CMA_PRES HKO_LAT HKO_LON HKO_CAT HKO_WIND HKO_PRES NEWDELHI_LAT NEWDELHI_LON NEWDELHI_GRADE NEWDELHI_WIND NEWDELHI_PRES NEWDELHI_CI NEWDELHI_DP NEWDELHI_POCI REUNION_LAT REUNION_LON REUNION_TYPE REUNION_WIND REUNION_PRES REUNION_TNUM REUNION_CI REUNION_RMW REUNION_R34_NE REUNION_R34_SE REUNION_R34_SW REUNION_R34_NW REUNION_R50_NE REUNION_R50_SE REUNION_R50_SW REUNION_R50_NW REUNION_R64_NE REUNION_R64_SE REUNION_R64_SW REUNION_R64_NW BOM_LAT BOM_LON BOM_TYPE BOM_WIND BOM_PRES BOM_TNUM BOM_CI BOM_RMW BOM_R34_NE BOM_R34_SE BOM_R34_SW BOM_R34_NW BOM_R50_NE BOM_R50_SE BOM_R50_SW BOM_R50_NW BOM_R64_NE BOM_R64_SE BOM_R64_SW BOM_R64_NW BOM_ROCI BOM_POCI BOM_EYE BOM_POS_METHOD BOM_PRES_METHOD NADI_LAT NADI_LON NADI_CAT NADI_WIND NADI_PRES WELLINGTON_LAT WELLINGTON_LON WELLINGTON_WIND WELLINGTON_PRES DS824_LAT DS824_LON DS824_STAGE DS824_WIND DS824_PRES TD9636_LAT TD9636_LON TD9636_STAGE TD9636_WIND TD9636_PRES TD9635_LAT TD9635_LON TD9635_WIND TD9635_PRES TD9635_ROCI NEUMANN_LAT NEUMANN_LON NEUMANN_CLASS NEUMANN_WIND NEUMANN_PRES MLC_LAT MLC_LON MLC_CLASS MLC_WIND MLC_PRES USA_GUST BOM_GUST BOM_GUST_PER REUNION_GUST REUNION_GUST_PER USA_SEAHGT USA_SEARAD_NE USA_SEARAD_SE USA_SEARAD_SW USA_SEARAD_NW STORM_SPEED STORM_DIR
1926038S15151 1926 11 SP EA NOT_NAMED 1926-02-06 23:00:00 NR -15.0000 151.200 bom main 489 489 ______O_______ -1 -15.0000 151.200 9 228
1926038S15151 1926 11 SP EA NOT_NAMED 1926-02-07 00:00:00 TS -15.1019 151.081 main 498 496 ______P__O____ -1 -15.1028 151.071 -15.1000 151.100 TC 10 231
1926038S15151 1926 11 SP EA NOT_NAMED 1926-02-07 03:00:00 TS -15.4057 150.687 main 527 500 ______P__P____ -1 -15.4063 150.676 -15.4048 150.703 TC 10 232
1926038S15151 1926 11 SP EA NOT_NAMED 1926-02-07 05:00:00 TS -15.6014 150.415 bom main 500 486 ______O__P____ -1 -15.6000 150.400 -15.6032 150.436 TC 10 234
1926038S15151 1926 11 SP EA NOT_NAMED 1926-02-07 06:00:00 TS -15.6965 150.278 main 486 434 ______P__O____ -1 -15.6930 150.256 -15.7000 150.300 TC 10 236
1926038S15151 1926 11 SP EA NOT_NAMED 1926-02-07 09:00:00 TS -15.9676 149.847 main 424 376 ______P__P____ -1 -15.9566 149.807 -15.9785 149.887 TC 10 238
1926038S15151 1926 11 SP EA NOT_NAMED 1926-02-07 12:00:00 TS -16.2204 149.409 main 376 328 ______P__P____ -1 -16.2007 149.346 -16.2400 149.472 TC 10 239
1926038S15151 1926 11 SP EA NOT_NAMED 1926-02-07 15:00:00 TS -16.4577 148.981 main 324 277 ______P__P____ -1 -16.4295 148.896 -16.4859 149.065 TC 9 240
1926038S15151 1926 11 SP EA NOT_NAMED 1926-02-07 18:00:00 TS -16.6826 148.576 main 277 230 ______P__P____ -1 -16.6476 148.476 -16.7176 148.677 TC 9 239
1926038S15151 1926 11 SP EA NOT_NAMED 1926-02-07 21:00:00 TS -16.8982 148.212 main 230 206 ______P__P____ -1 -16.8596 148.107 -16.9367 148.316 TC 8 237
1926038S15151 1926 11 SP EA NOT_NAMED 1926-02-07 23:00:00 TS -17.0383 147.999 bom main 206 194 ______O__P____ -1 -17.0000 147.900 -17.0766 148.097 TC 7 235
1926038S15151 1926 11 SP EA NOT_NAMED 1926-02-08 00:00:00 TS -17.1102 147.897 main 194 159 ______P__P____ -1 -17.0756 147.800 -17.1448 147.995 TC 7 231
1926038S15151 1926 11 SP EA NOT_NAMED 1926-02-08 03:00:00 TS -17.3217 147.631 main 159 137 ______P__P____ -1 -17.3000 147.539 -17.3435 147.722 TC 6 227
1926038S15151 1926 11 SP EA NOT_NAMED 1926-02-08 06:00:00 TS -17.5269 147.427 main 137 127 ______P__P____ -1 -17.5194 147.345 -17.5345 147.508 TC 5 218
1926038S15151 1926 11 SP EA NOT_NAMED 1926-02-08 09:00:00 TS -17.7256 147.295 main 127 116 ______P__P____ -1 -17.7317 147.226 -17.7194 147.364 TC 4 204
1926038S15151 1926 11 SP EA NOT_NAMED 1926-02-08 12:00:00 TS -17.9174 147.246 main 116 116 ______P__O____ -1 -17.9347 147.191 -17.9000 147.300 TC 4 190
1926038S15151 1926 11 SP EA NOT_NAMED 1926-02-08 13:00:00 TS -17.9837 147.250 bom main 125 119 ______O__P____ -1 -18.0000 147.200 -17.9674 147.300 TC 4 170
1926038S15151 1926 11 SP EA NOT_NAMED 1926-02-08 15:00:00 TS -18.1162 147.286 main 119 114 ______P__P____ -1 -18.1325 147.246 -18.0998 147.327 TC 4 156
1926038S15151 1926 11 SP EA NOT_NAMED 1926-02-08 18:00:00 TS -18.3049 147.401 main 118 101 ______P__P____ -1 -18.3217 147.385 -18.2880 147.418 TC 4 144
1926038S15151 1926 11 SP EA NOT_NAMED 1926-02-08 21:00:00 TS -18.4762 147.560 main 102 91 ______P__P____ -1 -18.4953 147.571 -18.4572 147.550 TC 5 136
1926038S15151 1926 11 SP EA NOT_NAMED 1926-02-08 23:00:00 TS -18.5779 147.675 999 bom main 94 94 ______O__P____ -1 -18.6000 147.700 999 4 -18.5558 147.649 TC 4 135
1926038S15151 1926 11 SP EA NOT_NAMED 1926-02-09 00:00:00 TS -18.6307 147.725 main 94 79 ______P__O____ -1 -18.6613 147.749 -18.6000 147.700 TC 30 999 4 139
1926038S15151 1926 11 SP EA NOT_NAMED 1926-02-09 03:00:00 TS -18.7803 147.862 main 85 76 ______P__P____ -1 -18.8414 147.896 -18.7192 147.828 TC 4 136
1926038S15151 1926 11 SP EA NOT_NAMED 1926-02-09 06:00:00 TS -18.9067 148.003 main 84 84 ______P__P____ -1 -19.0032 148.040 -18.8103 147.966 TC 4 129
1926038S15151 1926 11 SP EA NOT_NAMED 1926-02-09 09:00:00 TS -19.0029 148.147 main 84 84 ______P__P____ -1 -19.1302 148.182 -18.8755 148.112 TC 3 120
1926038S15151 1926 11 SP EA NOT_NAMED 1926-02-09 12:00:00 TS -19.0618 148.290 main 94 94 ______P__P____ -1 -19.2062 148.321 -18.9174 148.260 TC 3 105
1926038S15151 1926 11 SP EA NOT_NAMED 1926-02-09 15:00:00 TS -19.0766 148.432 main 100 100 ______P__P____ -1 -19.2149 148.456 -18.9383 148.408 TC 3 93
1926038S15151 1926 11 SP EA NOT_NAMED 1926-02-09 16:00:00 TS -19.0705 148.478 bom main 102 102 ______O__P____ -1 -19.2000 148.500 -18.9410 148.456 TC 3 74
1926038S15151 1926 11 SP EA NOT_NAMED 1926-02-09 18:00:00 TS -19.0386 148.570 main 116 116 ______P__P____ -1 -19.1365 148.591 -18.9407 148.549 TC 3 63
1926038S15151 1926 11 SP EA NOT_NAMED 1926-02-09 21:00:00 TS -18.9627 148.701 main 119 119 ______P__P____ -1 -18.9983 148.721 -18.9271 148.682 TC 3 56
1926038S15151 1926 11 SP EA NOT_NAMED 1926-02-09 23:00:00 TS -18.9052 148.781 bom main 133 133 ______O__P____ -1 -18.9000 148.800 -18.9104 148.762 TC 3 54
1926038S15151 1926 11 SP EA NOT_NAMED 1926-02-10 00:00:00 TS -18.8813 148.818 main 133 133 ______P__O____ -1 -18.8625 148.835 -18.9000 148.800 TC 2 52
1926038S15151 1926 11 SP EA NOT_NAMED 1926-02-10 03:00:00 TS -18.8139 148.905 main 148 148 ______P__P____ -1 -18.7610 148.926 -18.8668 148.883 TC 2 48
1926038S15151 1926 11 SP EA NOT_NAMED 1926-02-10 06:00:00 TS -18.7453 148.976 main 162 162 ______P__P____ -1 -18.6747 149.000 -18.8159 148.952 TC 2 42
1926038S15151 1926 11 SP EA NOT_NAMED 1926-02-10 09:00:00 TS -18.6770 149.036 main 162 162 ______P__P____ -1 -18.6021 149.059 -18.7519 149.012 TC 2 39
1926038S15151 1926 11 SP EA NOT_NAMED 1926-02-10 12:00:00 TS -18.6106 149.088 main 177 177 ______P__P____ -1 -18.5417 149.111 -18.6796 149.065 TC 2 38
1926038S15151 1926 11 SP EA NOT_NAMED 1926-02-10 15:00:00 TS -18.5477 149.138 main 187 187 ______P__P____ -1 -18.4920 149.158 -18.6035 149.117 TC 2 38
1926038S15151 1926 11 SP EA NOT_NAMED 1926-02-10 18:00:00 TS -18.4899 149.188 main 192 192 ______P__P____ -1 -18.4514 149.206 -18.5285 149.171 TC 1 45
1926038S15151 1926 11 SP EA NOT_NAMED 1926-02-10 21:00:00 TS -18.4388 149.245 main 202 202 ______P__P____ -1 -18.4185 149.259 -18.4591 149.230 TC 1 50
1926038S15151 1926 11 SP EA NOT_NAMED 1926-02-10 23:00:00 TS -18.4091 149.288 bom main 207 207 ______O__P____ -1 -18.4000 149.300 -18.4182 149.275 TC 1 51
1926038S15151 1926 11 SP EA NOT_NAMED 1926-02-11 00:00:00 TS -18.3955 149.304 main 207 207 ______P__O____ -1 -18.3910 149.309 -18.4000 149.300 TC 1 51
1926038S15151 1926 11 SP EA NOT_NAMED 1926-02-11 03:00:00 TS -18.3742 149.333 main 207 207 ______P__P____ -1 -18.3714 149.331 -18.3769 149.334 TC 1 60
1926038S15151 1926 11 SP EA NOT_NAMED 1926-02-11 06:00:00 TS -18.3617 149.363 main 213 213 ______P__P____ -1 -18.3602 149.355 -18.3632 149.370 TC 1 74
1926038S15151 1926 11 SP EA NOT_NAMED 1926-02-11 09:00:00 TS -18.3550 149.406 main 213 213 ______P__P____ -1 -18.3542 149.394 -18.3558 149.417 TC 1 84
1926038S15151 1926 11 SP EA NOT_NAMED 1926-02-11 12:00:00 TS -18.3508 149.473 main 218 218 ______P__P____ -1 -18.3502 149.459 -18.3515 149.487 TC 2 87
1926038S15151 1926 11 SP EA NOT_NAMED 1926-02-11 15:00:00 TS -18.3460 149.575 main 234 234 ______P__P____ -1 -18.3449 149.560 -18.3470 149.590 TC 2 87
1926038S15151 1926 11 SP EA NOT_NAMED 1926-02-11 18:00:00 TS -18.3372 149.723 main 240 240 ______P__P____ -1 -18.3352 149.710 -18.3392 149.736 TC 3 86
1926038S15151 1926 11 SP EA NOT_NAMED 1926-02-11 21:00:00 TS -18.3212 149.928 main 251 251 ______P__P____ -1 -18.3177 149.921 -18.3246 149.935 TC 4 85
1926038S15151 1926 11 SP EA NOT_NAMED 1926-02-11 23:00:00 TS -18.3048 150.102 bom main 262 262 ______O__P____ -1 -18.3000 150.100 -18.3095 150.104 TC 5 83
1926038S15151 1926 11 SP EA NOT_NAMED 1926-02-12 00:00:00 TS -18.2911 150.204 main 267 267 ______P__O____ -1 -18.2822 150.207 -18.3000 150.200 TC 6 82
1926038S15151 1926 11 SP EA NOT_NAMED 1926-02-12 03:00:00 TS -18.2430 150.553 main 301 301 ______P__P____ -1 -18.2231 150.572 -18.2629 150.535 TC 7 82
1926038S15151 1926 11 SP EA NOT_NAMED 1926-02-12 06:00:00 TS -18.1898 150.954 main 329 329 ______P__P____ -1 -18.1646 150.982 -18.2151 150.925 TC 8 82
1926038S15151 1926 11 SP EA NOT_NAMED 1926-02-12 09:00:00 TS -18.1360 151.388 main 367 367 ______P__P____ -1 -18.1182 151.413 -18.1597 151.354 TC 8 83
1926038S15151 1926 11 SP EA NOT_NAMED 1926-02-12 11:00:00 TS -18.1067 151.683 bom main 391 391 ______O__P____ -1 -18.1000 151.700 -18.1202 151.650 TC 9 85
1926038S15151 1926 11 SP EA NOT_NAMED 1926-02-12 12:00:00 TS -18.0967 151.833 main 399 399 ______P__O____ -1 -18.0959 151.841 -18.1000 151.800 TC 8 90
1926038S15151 1926 11 SP EA NOT_NAMED 1926-02-12 15:00:00 NR -18.1020 152.252 main 442 442 ______P_______ -1 -18.1020 152.252 TC 8 92
1926038S15151 1926 11 SP EA NOT_NAMED 1926-02-12 18:00:00 NR -18.1294 152.651 main 477 477 ______P_______ -1 -18.1294 152.651 TC 8 95
1926038S15151 1926 11 SP EA NOT_NAMED 1926-02-12 21:00:00 NR -18.1699 153.041 main 499 499 ______P_______ -1 -18.1699 153.041 TC 7 97
1926038S15151 1926 11 SP EA NOT_NAMED 1926-02-12 23:00:00 NR -18.2000 153.300 bom main 527 ______O_______ -1 -18.2000 153.300 TC 7 97

デジタル台風データ・検索

IBTrACS Databaseについて

本データベースは、米国NOAAが公開する1842年以降の世界の熱帯低気圧のベストトラックデータアーカイブInternational Best Track Archive for Climate Stewardship (IBTrACS)を、ウェブで閲覧しやすい形式に変換したものです。

最終更新日:2021-10-19